Time;durP1;ratioP1;P1;durP2;ratioP2;P2;SDS_P1;SDS_P2;PMS_P1;PMS_P2;Temp;Humidity;BMP_temperature;BMP_pressure;BME280_temperature;BME280_humidity;BME280_pressure;Samples;Min_cycle;Max_cycle;Signal;HPM_P1;HPM_P2
2022/09/14 00:00:32;;;;;;;4.20;1.60;;;;;;;14.87;81.20;100991.59;5071072;28;20474;-75
2022/09/14 00:02:58;;;;;;;8.43;1.70;;;;;;;14.87;81.54;100993.56;5071303;28;20041;-75
2022/09/14 00:05:25;;;;;;;4.15;1.65;;;;;;;14.85;82.24;101007.41;5070668;28;20049;-76
2022/09/14 00:07:51;;;;;;;2.35;1.98;;;;;;;14.82;82.25;100997.63;5071505;28;20052;-76
2022/09/14 00:10:18;;;;;;;6.78;1.90;;;;;;;14.81;81.89;100995.41;5074725;28;20084;-76
2022/09/14 00:12:44;;;;;;;4.63;2.13;;;;;;;14.78;81.77;100990.97;5074460;28;20124;-76
2022/09/14 00:15:10;;;;;;;6.75;2.05;;;;;;;14.78;81.92;100986.38;5074634;28;20188;-75
2022/09/14 00:17:37;;;;;;;6.60;2.30;;;;;;;14.78;81.71;100982.94;5074324;28;20480;-76
2022/09/14 00:20:04;;;;;;;3.40;1.80;;;;;;;14.76;81.88;100983.41;5072591;28;20076;-75
2022/09/14 00:22:30;;;;;;;4.82;2.25;;;;;;;14.73;82.28;100984.31;5074529;28;20124;-74
2022/09/14 00:24:57;;;;;;;7.13;2.10;;;;;;;14.72;82.08;100974.06;5074746;28;20045;-74
2022/09/14 00:27:23;;;;;;;7.57;1.75;;;;;;;14.73;82.58;100976.28;5074384;28;20553;-74
2022/09/14 00:29:49;;;;;;;5.85;2.28;;;;;;;14.71;82.43;100977.94;5074028;28;20057;-74
2022/09/14 00:32:16;;;;;;;2.60;1.83;;;;;;;14.69;82.56;100975.72;5074520;28;20111;-74
2022/09/14 00:34:43;;;;;;;3.10;1.92;;;;;;;14.70;83.42;100965.75;5056075;28;20091;-74
2022/09/14 00:37:10;;;;;;;7.72;2.08;;;;;;;14.68;83.00;100956.22;5074168;28;20120;-74
2022/09/14 00:39:36;;;;;;;4.05;1.85;;;;;;;14.68;83.30;100955.50;5073980;28;20049;-74
2022/09/14 00:42:04;;;;;;;4.07;2.10;;;;;;;14.68;83.95;100950.88;5074439;28;20063;-74
2022/09/14 00:44:31;;;;;;;3.25;1.92;;;;;;;14.69;83.74;100943.56;5073617;28;20076;-74
2022/09/14 00:47:01;;;;;;;7.07;1.77;;;;;;;14.68;83.34;100947.47;5072676;28;20051;-74
2022/09/14 00:49:34;;;;;;;4.60;2.28;;;;;;;14.68;83.28;100945.53;5073835;28;20048;-74
2022/09/14 00:52:18;;;;;;;4.25;2.00;;;;;;;14.68;83.53;100939.41;5074154;28;20752;-76
2022/09/14 00:54:47;;;;;;;7.13;1.90;;;;;;;14.66;83.99;100934.53;5074136;28;20540;-76
2022/09/14 00:57:15;;;;;;;4.60;1.92;;;;;;;14.66;84.11;100941.81;5055652;28;20072;-76
2022/09/14 00:59:43;;;;;;;10.60;2.40;;;;;;;14.65;83.83;100937.66;5073750;28;20052;-76
2022/09/14 01:02:13;;;;;;;8.70;2.20;;;;;;;14.65;83.84;100932.31;5054048;28;20041;-76
2022/09/14 01:04:41;;;;;;;4.32;1.92;;;;;;;14.62;83.63;100933.97;5055236;28;20087;-76
2022/09/14 01:07:26;;;;;;;14.43;2.33;;;;;;;14.64;83.64;100928.88;5073651;28;20047;-76
2022/09/14 01:10:07;;;;;;;2.83;1.88;;;;;;;14.63;83.32;100926.66;5073801;28;20045;-76
2022/09/14 01:12:48;;;;;;;5.10;1.92;;;;;;;14.64;83.42;100922.78;5055034;28;20086;-76
2022/09/14 01:15:20;;;;;;;3.58;1.85;;;;;;;14.63;84.24;100913.28;5054804;28;20057;-76
2022/09/14 01:18:06;;;;;;;3.63;2.00;;;;;;;14.62;83.38;100915.22;5073207;28;20102;-76
2022/09/14 01:20:39;;;;;;;6.65;2.17;;;;;;;14.61;83.70;100908.38;5070928;28;20053;-76
2022/09/14 01:23:26;;;;;;;3.85;2.10;;;;;;;14.60;83.94;100904.22;5073706;28;20049;-74
2022/09/14 01:26:15;;;;;;;3.42;1.95;;;;;;;14.58;83.68;100901.25;5073811;28;20052;-74
2022/09/14 01:29:00;;;;;;;8.48;2.22;;;;;;;14.58;83.20;100909.28;5073275;28;20072;-75
2022/09/14 01:31:46;;;;;;;7.00;2.20;;;;;;;14.58;83.17;100911.97;5073408;28;20516;-75
2022/09/14 01:34:24;;;;;;;5.68;2.28;;;;;;;14.60;83.03;100908.84;5073227;28;20045;-74
2022/09/14 01:36:58;;;;;;;4.97;2.20;;;;;;;14.58;83.04;100898.59;5073437;28;20041;-75
2022/09/14 01:39:30;;;;;;;5.03;2.33;;;;;;;14.57;83.52;100902.47;5055439;28;20055;-73
2022/09/14 01:41:58;;;;;;;5.25;2.50;;;;;;;14.58;83.66;100911.25;5073195;28;20055;-76
2022/09/14 01:44:31;;;;;;;5.75;2.05;;;;;;;14.57;83.35;100896.38;5073245;28;20553;-76
2022/09/14 01:47:11;;;;;;;3.25;2.10;;;;;;;14.55;83.07;100891.47;5071193;28;20049;-76
2022/09/14 01:49:43;;;;;;;5.70;2.47;;;;;;;14.54;83.18;100894.59;5073352;28;20492;-75
2022/09/14 01:52:15;;;;;;;4.72;2.53;;;;;;;14.53;83.28;100906.53;5073360;28;20482;-76
2022/09/14 01:54:55;;;;;;;5.80;2.58;;;;;;;14.51;83.38;100895.53;5073120;28;20037;-76
2022/09/14 01:57:31;;;;;;;4.68;2.17;;;;;;;14.50;83.38;100899.41;5072996;28;20095;-76
2022/09/14 02:00:03;;;;;;;5.35;2.25;;;;;;;14.47;83.98;100895.72;5073003;28;20120;-76
2022/09/14 02:02:39;;;;;;;5.47;2.10;;;;;;;14.46;83.85;100885.47;5070878;28;20041;-76
2022/09/14 02:05:15;;;;;;;3.10;2.70;;;;;;;14.48;83.88;100893.78;5072898;28;20087;-76
2022/09/14 02:07:42;;;;;;;3.40;2.08;;;;;;;14.47;83.70;100885.00;5073142;28;20386;-76
2022/09/14 02:10:12;;;;;;;3.80;2.22;;;;;;;14.48;83.45;100880.38;5072901;28;20169;-76
2022/09/14 02:12:39;;;;;;;7.93;2.40;;;;;;;14.48;83.29;100877.72;5072660;28;20117;-76
2022/09/14 02:15:08;;;;;;;4.43;2.00;;;;;;;14.48;83.18;100883.06;5072666;28;20047;-76
2022/09/14 02:17:35;;;;;;;4.50;2.30;;;;;;;14.48;83.35;100883.81;5072245;28;20045;-76
2022/09/14 02:20:04;;;;;;;3.75;2.20;;;;;;;14.49;83.01;100876.50;5072440;28;20127;-76
2022/09/14 02:22:31;;;;;;;3.50;1.88;;;;;;;14.49;83.15;100871.16;5072282;28;20501;-76
2022/09/14 02:24:58;;;;;;;7.93;2.22;;;;;;;14.49;83.09;100871.16;5054425;28;20049;-76
2022/09/14 02:27:25;;;;;;;5.82;2.15;;;;;;;14.47;83.62;100871.59;5072564;28;20615;-76
2022/09/14 02:29:52;;;;;;;6.15;2.10;;;;;;;14.47;83.00;100866.25;5071841;28;20057;-76
2022/09/14 02:32:33;;;;;;;5.57;2.05;;;;;;;14.47;83.02;100871.59;5072037;28;20128;-76
2022/09/14 02:35:31;;;;;;;8.18;2.17;;;;;;;14.48;82.97;100861.63;5072400;28;20049;-76
2022/09/14 02:38:04;;;;;;;3.60;2.03;;;;;;;14.47;82.57;100865.50;5061747;28;20049;-76
2022/09/14 02:40:36;;;;;;;5.05;2.35;;;;;;;14.45;82.91;100854.53;5072339;28;20124;-76
2022/09/14 02:43:06;;;;;;;5.38;2.05;;;;;;;14.46;82.95;100850.63;5072519;28;20056;-76
2022/09/14 02:46:00;;;;;;;3.20;2.00;;;;;;;14.46;82.91;100847.97;5072049;28;20045;-76
2022/09/14 02:48:54;;;;;;;3.42;2.00;;;;;;;14.45;83.15;100847.22;5072418;28;20063;-76
2022/09/14 02:51:33;;;;;;;4.47;1.40;;;;;;;14.46;83.31;100845.28;5072263;28;20533;-76
2022/09/14 02:54:14;;;;;;;7.65;1.88;;;;;;;14.46;83.08;100845.28;5072281;28;20045;-76
2022/09/14 02:56:41;;;;;;;7.43;2.00;;;;;;;14.45;82.81;100846.47;5072205;28;20124;-76
2022/09/14 02:59:07;;;;;;;3.08;2.00;;;;;;;14.47;83.93;100839.47;5036943;28;20528;-75
2022/09/14 03:01:33;;;;;;;4.68;2.05;;;;;;;14.47;83.11;100841.41;5072085;28;20045;-76
2022/09/14 03:04:00;;;;;;;5.50;2.08;;;;;;;14.46;81.84;100832.63;5071937;28;20444;-76
2022/09/14 03:06:27;;;;;;;5.97;2.08;;;;;;;14.44;81.55;100831.63;5072165;28;20045;-76
2022/09/14 03:08:53;;;;;;;4.28;2.15;;;;;;;14.43;81.82;100827.47;5072212;28;20112;-76
2022/09/14 03:11:19;;;;;;;4.35;1.80;;;;;;;14.43;80.97;100822.84;5072186;28;20037;-76
2022/09/14 03:13:46;;;;;;;4.25;2.63;;;;;;;14.42;81.27;100826.72;5071834;28;20516;-75
2022/09/14 03:16:14;;;;;;;3.10;1.77;;;;;;;14.43;81.19;100832.81;5071999;28;20047;-76
2022/09/14 03:18:41;;;;;;;4.72;1.60;;;;;;;14.42;81.36;100836.69;5071503;28;20553;-75
2022/09/14 03:21:14;;;;;;;3.22;1.77;;;;;;;14.43;81.31;100830.13;5070334;28;20555;-75
2022/09/14 03:23:43;;;;;;;1.92;1.40;;;;;;;14.42;81.37;100825.97;5053730;28;20544;-75
2022/09/14 03:26:12;;;;;;;3.28;1.70;;;;;;;14.41;81.68;100825.25;5071595;28;20068;-74
2022/09/14 03:28:39;;;;;;;5.68;1.70;;;;;;;14.39;82.03;100819.63;5071206;28;20047;-74
2022/09/14 03:31:08;;;;;;;9.95;1.83;;;;;;;14.38;81.94;100820.06;5071030;28;20057;-76
2022/09/14 03:33:35;;;;;;;2.88;1.92;;;;;;;14.37;82.34;100811.31;5071494;28;20124;-76
2022/09/14 03:36:13;;;;;;;8.18;1.70;;;;;;;14.37;82.53;100805.22;5071566;28;20049;-75
2022/09/14 03:38:45;;;;;;;3.20;1.80;;;;;;;14.35;82.81;100811.03;5053995;28;20493;-76
2022/09/14 03:41:12;;;;;;;5.63;1.67;;;;;;;14.33;82.50;100808.81;5071632;28;20415;-75
2022/09/14 03:43:40;;;;;;;3.95;2.00;;;;;;;14.32;83.15;100815.38;5071838;28;20128;-76
2022/09/14 03:46:15;;;;;;;6.90;2.28;;;;;;;14.33;83.33;100816.84;5075030;28;20107;-76
2022/09/14 03:48:43;;;;;;;5.82;2.22;;;;;;;14.33;83.50;100810.75;5075116;28;20041;-76
2022/09/14 03:51:11;;;;;;;6.90;2.10;;;;;;;14.32;83.97;100807.34;5074944;28;20076;-76
2022/09/14 03:53:38;;;;;;;6.45;2.10;;;;;;;14.31;84.15;100803.19;5075068;28;20123;-76
2022/09/14 03:56:10;;;;;;;6.43;2.40;;;;;;;14.29;84.03;100800.22;5074696;28;20467;-75
2022/09/14 03:58:37;;;;;;;5.05;2.15;;;;;;;14.29;85.51;100796.81;5074278;28;20124;-75
2022/09/14 04:01:09;;;;;;;3.20;1.83;;;;;;;14.28;85.78;100793.38;5074732;28;20128;-74
2022/09/14 04:03:36;;;;;;;4.30;2.10;;;;;;;14.25;85.26;100783.59;5074930;28;20108;-75
2022/09/14 04:06:04;;;;;;;6.90;2.45;;;;;;;14.23;84.98;100782.59;5074911;28;20045;-75
2022/09/14 04:08:37;;;;;;;5.68;2.42;;;;;;;14.21;85.58;100780.38;5074727;28;20111;-75
2022/09/14 04:11:23;;;;;;;3.95;2.80;;;;;;;14.20;84.91;100778.91;5075030;28;20128;-75
2022/09/14 04:13:51;;;;;;;4.57;2.80;;;;;;;14.19;86.07;100779.34;5074751;28;20051;-75
2022/09/14 04:16:19;;;;;;;9.32;2.83;;;;;;;14.18;85.43;100785.91;5074972;28;20045;-75
2022/09/14 04:18:47;;;;;;;3.22;2.78;;;;;;;14.19;86.90;100784.72;5074817;28;20436;-75
2022/09/14 04:21:18;;;;;;;5.32;3.10;;;;;;;14.17;86.95;100779.09;5074482;28;20055;-75
2022/09/14 04:23:45;;;;;;;6.18;3.30;;;;;;;14.12;86.49;100775.13;5056348;28;20052;-75
2022/09/14 04:26:32;;;;;;;6.15;3.10;;;;;;;14.10;87.13;100776.78;5074073;28;20049;-75
2022/09/14 04:28:59;;;;;;;7.47;3.70;;;;;;;14.08;86.91;100779.91;5055737;28;20115;-74
2022/09/14 04:31:26;;;;;;;5.35;3.53;;;;;;;14.07;87.02;100780.38;5074434;28;20040;-75
2022/09/14 04:33:55;;;;;;;6.30;3.80;;;;;;;14.10;87.53;100776.78;5074321;28;20041;-75
2022/09/14 04:36:27;;;;;;;4.88;3.22;;;;;;;14.06;88.33;100771.59;5074318;28;20121;-75
2022/09/14 04:38:54;;;;;;;8.20;3.67;;;;;;;14.05;88.14;100770.13;5074565;28;20041;-75
2022/09/14 04:41:21;;;;;;;5.60;3.63;;;;;;;14.05;88.01;100777.41;5073582;28;20513;-75
2022/09/14 04:43:50;;;;;;;7.78;3.33;;;;;;;14.07;88.00;100775.03;5074556;28;20041;-75
2022/09/14 04:46:19;;;;;;;7.07;3.50;;;;;;;14.05;88.20;100770.13;5073920;28;20049;-75
2022/09/14 04:48:46;;;;;;;6.57;3.72;;;;;;;14.03;88.57;100770.59;5074322;28;20056;-75
2022/09/14 04:51:18;;;;;;;3.30;3.00;;;;;;;14.04;88.19;100760.63;5074054;28;20509;-75
2022/09/14 04:53:48;;;;;;;3.53;3.20;;;;;;;14.06;88.48;100768.19;5074112;28;20417;-75
2022/09/14 04:56:16;;;;;;;9.63;3.60;;;;;;;14.03;88.23;100765.22;5073549;28;20128;-75
2022/09/14 04:58:45;;;;;;;8.52;3.28;;;;;;;14.03;87.71;100754.53;5073936;28;20041;-75
2022/09/14 05:01:22;;;;;;;9.35;3.53;;;;;;;14.00;87.50;100755.44;5073856;28;20045;-75
2022/09/14 05:03:50;;;;;;;6.63;3.90;;;;;;;13.99;87.89;100753.25;5074577;28;20052;-75
2022/09/14 05:06:25;;;;;;;5.93;3.58;;;;;;;13.97;88.12;100767.09;5056704;28;20045;-75
2022/09/14 05:08:52;;;;;;;5.20;3.55;;;;;;;13.97;87.80;100761.00;5074542;28;20049;-75
2022/09/14 05:11:24;;;;;;;5.75;3.20;;;;;;;13.97;87.68;100769.03;5073148;28;20036;-76
2022/09/14 05:13:51;;;;;;;5.25;3.30;;;;;;;13.98;87.87;100762.50;5055426;28;21027;-75
2022/09/14 05:16:20;;;;;;;3.95;3.42;;;;;;;13.96;88.55;100770.97;5073873;28;20059;-75
2022/09/14 05:18:47;;;;;;;5.85;3.50;;;;;;;13.98;88.33;100765.16;5073483;28;20108;-75
2022/09/14 05:21:16;;;;;;;7.00;3.10;;;;;;;13.95;89.70;100763.41;5073490;28;20056;-75
2022/09/14 05:23:43;;;;;;;7.53;3.60;;;;;;;13.90;90.13;100761.38;5073288;28;20130;-75
2022/09/14 05:26:10;;;;;;;5.18;3.17;;;;;;;13.88;90.71;100764.50;5072858;28;20123;-75
2022/09/14 05:28:37;;;;;;;3.83;3.13;;;;;;;13.87;90.74;100768.38;5072984;28;20116;-75
2022/09/14 05:31:06;;;;;;;4.47;3.00;;;;;;;13.89;90.63;100766.00;5073017;28;20539;-75
2022/09/14 05:33:33;;;;;;;3.85;3.50;;;;;;;13.92;91.07;100769.69;5055441;28;20049;-75
2022/09/14 05:36:05;;;;;;;5.28;3.20;;;;;;;13.90;91.16;100772.81;5073426;28;20041;-75
2022/09/14 05:38:34;;;;;;;4.38;3.75;;;;;;;13.92;91.49;100772.38;5073454;28;20037;-75
2022/09/14 05:41:00;;;;;;;7.70;3.22;;;;;;;13.93;91.09;100765.81;5072979;28;20055;-75
2022/09/14 05:43:28;;;;;;;7.82;3.50;;;;;;;13.93;91.80;100765.81;5073553;28;20044;-75
2022/09/14 05:45:55;;;;;;;4.57;3.40;;;;;;;13.92;91.04;100770.44;5072851;28;20069;-75
2022/09/14 05:48:21;;;;;;;9.07;3.58;;;;;;;13.95;90.86;100766.81;5073386;28;20052;-75
2022/09/14 05:50:48;;;;;;;4.95;3.50;;;;;;;13.97;90.33;100766.38;5072893;28;20049;-75
2022/09/14 05:53:14;;;;;;;3.80;3.08;;;;;;;14.00;90.07;100757.38;5072755;28;20045;-74
2022/09/14 05:55:41;;;;;;;5.93;3.45;;;;;;;13.97;89.18;100756.41;5055047;28;20044;-74
2022/09/14 05:58:07;;;;;;;7.47;3.58;;;;;;;13.98;89.17;100757.13;5038159;28;20128;-74
2022/09/14 06:00:33;;;;;;;5.57;3.33;;;;;;;14.03;89.46;100764.50;5055061;28;20469;-72
2022/09/14 06:03:00;;;;;;;4.97;4.18;;;;;;;14.09;89.16;100754.63;5072839;28;20045;-73
2022/09/14 06:05:27;;;;;;;16.88;3.42;;;;;;;14.12;88.20;100764.41;5072801;28;20449;-73
2022/09/14 06:07:53;;;;;;;5.53;3.20;;;;;;;14.13;89.63;100770.50;5071421;28;20056;-73
2022/09/14 06:10:20;;;;;;;4.45;3.20;;;;;;;14.16;87.78;100764.22;5071843;28;20508;-72
2022/09/14 06:12:47;;;;;;;9.63;3.60;;;;;;;14.20;88.10;100770.88;5072869;28;20481;-73
2022/09/14 06:15:20;;;;;;;6.78;3.63;;;;;;;14.24;87.88;100762.66;5073062;28;20103;-74
2022/09/14 06:17:46;;;;;;;8.90;2.97;;;;;;;14.25;87.98;100770.22;5072437;28;20124;-72
2022/09/14 06:20:13;;;;;;;5.30;3.50;;;;;;;14.26;87.39;100773.63;5072644;28;20134;-72
2022/09/14 06:22:40;;;;;;;7.03;3.80;;;;;;;14.26;87.72;100776.31;5072057;28;20055;-72
2022/09/14 06:25:06;;;;;;;7.85;4.07;;;;;;;14.26;87.79;100779.72;5037708;28;20057;-73
2022/09/14 06:27:33;;;;;;;3.63;3.28;;;;;;;14.28;86.91;100776.59;5072756;28;20045;-72
2022/09/14 06:29:59;;;;;;;11.07;4.60;;;;;;;14.31;86.76;100778.34;5071945;28;20053;-74
2022/09/14 06:32:29;;;;;;;8.07;3.65;;;;;;;14.31;86.07;100781.75;5072456;28;20064;-77
2022/09/14 06:34:55;;;;;;;5.63;3.47;;;;;;;14.35;86.48;100776.94;5067076;28;20532;-77
2022/09/14 06:37:22;;;;;;;8.23;3.58;;;;;;;14.39;86.77;100770.66;5051958;28;20069;-76
2022/09/14 06:39:48;;;;;;;6.68;3.60;;;;;;;14.49;86.76;100772.78;5051919;28;20554;-76
2022/09/14 06:42:15;;;;;;;6.38;4.38;;;;;;;14.53;85.36;100776.00;5051857;28;20045;-76
2022/09/14 06:44:41;;;;;;;4.50;3.42;;;;;;;14.55;85.77;100767.50;5034068;28;20120;-77
2022/09/14 06:47:08;;;;;;;8.75;3.83;;;;;;;14.59;86.04;100766.13;5050724;28;20045;-77
2022/09/14 06:49:34;;;;;;;10.88;3.38;;;;;;;14.61;86.11;100762.97;5052056;28;20480;-76
2022/09/14 06:52:01;;;;;;;4.32;3.08;;;;;;;14.60;85.52;100764.91;5051294;28;20129;-77
2022/09/14 06:54:28;;;;;;;4.47;3.58;;;;;;;14.66;85.73;100770.34;5052249;28;20045;-76
2022/09/14 06:56:54;;;;;;;6.10;3.60;;;;;;;14.64;86.04;100773.50;5051486;28;20045;-77
2022/09/14 06:59:20;;;;;;;7.13;3.85;;;;;;;14.63;85.93;100772.03;5051896;28;20050;-76
2022/09/14 07:01:50;;;;;;;9.32;3.13;;;;;;;14.62;86.04;100773.22;5033557;28;20059;-76
2022/09/14 07:04:17;;;;;;;4.55;3.30;;;;;;;14.59;85.12;100779.50;5051837;28;20045;-77
2022/09/14 07:06:48;;;;;;;10.98;3.90;;;;;;;14.59;84.96;100774.16;5051356;28;20041;-77
2022/09/14 07:09:16;;;;;;;3.95;3.38;;;;;;;14.60;85.75;100767.59;5051699;28;20573;-77
2022/09/14 07:11:43;;;;;;;10.48;3.22;;;;;;;14.60;85.07;100764.19;5051703;28;20132;-77
2022/09/14 07:14:10;;;;;;;4.88;3.10;;;;;;;14.63;85.98;100769.34;5051403;28;20125;-77
2022/09/14 07:16:38;;;;;;;8.75;3.20;;;;;;;14.64;85.69;100764.72;5050496;28;20052;-77
2022/09/14 07:19:08;;;;;;;8.82;3.10;;;;;;;14.68;85.49;100771.38;5052882;28;20117;-77
2022/09/14 07:21:35;;;;;;;7.40;3.40;;;;;;;14.66;85.34;100757.69;5054880;28;20515;-77
2022/09/14 07:24:02;;;;;;;6.15;3.05;;;;;;;14.73;85.67;100761.19;5053813;28;20138;-77
2022/09/14 07:26:32;;;;;;;8.38;3.25;;;;;;;14.82;84.97;100761.78;5055417;28;20095;-77
2022/09/14 07:29:01;;;;;;;6.72;3.28;;;;;;;14.80;84.70;100763.44;5054891;28;20486;-77
2022/09/14 07:31:29;;;;;;;4.88;2.90;;;;;;;14.84;84.23;100764.72;5055552;28;20130;-77
2022/09/14 07:33:57;;;;;;;8.20;3.25;;;;;;;14.88;84.13;100773.31;5054871;28;20047;-78
2022/09/14 07:36:25;;;;;;;3.35;2.80;;;;;;;14.93;83.99;100763.88;5054757;28;20487;-77
2022/09/14 07:38:52;;;;;;;6.05;2.90;;;;;;;14.97;83.18;100761.72;5054465;28;20120;-78
2022/09/14 07:41:24;;;;;;;3.30;3.00;;;;;;;15.00;83.34;100761.53;5054968;28;20391;-78
2022/09/14 07:43:51;;;;;;;;;;;;;;;15.02;83.28;100753.75;5055392;28;20069;-78
2022/09/14 07:46:19;;;;;;;3.58;2.85;;;;;;;15.04;83.11;100765.97;5055186;28;20027;-77
2022/09/14 07:48:47;;;;;;;9.07;3.33;;;;;;;15.06;83.11;100766.97;5054671;28;20076;-78
2022/09/14 07:51:14;;;;;;;5.80;2.75;;;;;;;15.08;82.89;100761.88;5054284;28;20111;-78
2022/09/14 07:53:42;;;;;;;7.70;2.85;;;;;;;15.12;83.03;100756.31;5054457;28;20148;-77
2022/09/14 07:56:10;;;;;;;8.32;3.13;;;;;;;15.17;82.46;100764.44;5052706;28;20042;-75
2022/09/14 07:58:37;;;;;;;6.28;2.72;;;;;;;15.22;83.05;100763.00;5054349;28;20050;-78
2022/09/14 08:01:07;;;;;;;3.25;2.80;;;;;;;15.24;82.11;100761.31;5055576;28;20491;-77
2022/09/14 08:03:38;;;;;;;4.57;2.85;;;;;;;15.24;82.19;100757.91;5074268;28;20049;-76
2022/09/14 08:06:10;;;;;;;7.55;2.83;;;;;;;15.29;82.13;100763.31;5074571;28;20045;-76
2022/09/14 08:08:40;;;;;;;5.20;2.88;;;;;;;15.34;82.66;100759.22;5074604;28;20059;-78
2022/09/14 08:11:10;;;;;;;8.85;2.50;;;;;;;15.37;81.93;100766.34;5073016;28;20045;-78
2022/09/14 08:13:39;;;;;;;6.15;2.72;;;;;;;15.41;82.89;100766.88;5074513;28;20049;-77
2022/09/14 08:16:06;;;;;;;4.95;2.67;;;;;;;15.46;81.88;100762.78;5074464;28;20497;-77
2022/09/14 08:18:34;;;;;;;7.38;2.50;;;;;;;15.47;81.69;100759.63;5073982;28;20049;-77
2022/09/14 08:21:12;;;;;;;5.22;2.55;;;;;;;15.52;81.41;100766.25;5074717;28;20507;-77
2022/09/14 08:23:40;;;;;;;4.70;2.83;;;;;;;15.56;80.52;100762.19;5072701;28;20524;-77
2022/09/14 08:26:12;;;;;;;8.93;2.70;;;;;;;15.57;80.53;100749.50;5074273;28;20053;-77
2022/09/14 08:28:38;;;;;;;;;;;;;;;15.63;80.71;100745.66;5073712;28;20052;-77
2022/09/14 08:31:14;;;;;;;3.95;2.63;;;;;;;15.68;80.36;100750.34;5073393;28;19936;-77
2022/09/14 08:33:43;;;;;;;5.97;2.30;;;;;;;15.75;80.04;100762.59;5071389;28;20064;-78
2022/09/14 08:36:13;;;;;;;2.85;2.50;;;;;;;15.83;80.91;100757.53;5074184;28;20052;-78
2022/09/14 08:38:40;;;;;;;2.65;2.20;;;;;;;15.88;79.58;100754.19;5073927;28;20053;-77
2022/09/14 08:41:18;;;;;;;6.25;2.60;;;;;;;15.89;78.63;100748.34;5074208;28;20056;-77
2022/09/14 08:43:45;;;;;;;9.48;2.65;;;;;;;15.91;78.84;100740.53;5073774;28;20052;-77
2022/09/14 08:46:32;;;;;;;4.43;2.38;;;;;;;15.92;78.54;100739.31;5055746;28;20052;-76
2022/09/14 08:49:01;;;;;;;6.30;2.90;;;;;;;15.92;78.79;100731.28;5072498;28;20037;-75
2022/09/14 08:51:28;;;;;;;4.97;2.80;;;;;;;15.98;78.24;100731.31;5074242;28;20164;-76
2022/09/14 08:53:58;;;;;;;4.63;2.60;;;;;;;15.99;78.38;100727.44;5073712;28;20458;-75
2022/09/14 08:56:32;;;;;;;5.03;2.65;;;;;;;15.98;78.66;100731.31;5074243;28;20055;-76
2022/09/14 08:59:08;;;;;;;8.30;2.78;;;;;;;16.00;79.45;100726.91;5071924;28;20060;-76
2022/09/14 09:01:46;;;;;;;8.55;3.10;;;;;;;16.06;79.71;100726.97;5072023;28;20518;-75
2022/09/14 09:04:28;;;;;;;5.55;3.17;;;;;;;16.17;78.88;100723.63;5073574;28;20045;-76
2022/09/14 09:07:04;;;;;;;2.83;2.58;;;;;;;16.20;78.95;100728.06;5071272;28;20064;-78
2022/09/14 09:09:49;;;;;;;6.70;2.67;;;;;;;16.23;79.63;100729.78;5071827;28;20053;-77
2022/09/14 09:12:40;;;;;;;6.40;2.80;;;;;;;16.26;79.29;100732.25;5072961;28;20044;-76
2022/09/14 09:15:28;;;;;;;13.52;3.30;;;;;;;16.28;79.56;100729.81;5073427;28;20049;-76
2022/09/14 09:18:04;;;;;;;6.10;2.92;;;;;;;16.34;78.82;100725.22;5052008;28;20064;-76
2022/09/14 09:20:39;;;;;;;8.82;3.00;;;;;;;16.37;78.84;100725.47;5072447;28;20072;-75
2022/09/14 09:23:15;;;;;;;7.88;2.90;;;;;;;16.44;78.40;100727.69;5073191;28;20514;-75
2022/09/14 09:26:00;;;;;;;15.48;3.10;;;;;;;16.46;78.37;100722.59;5070811;28;20049;-75
2022/09/14 09:28:28;;;;;;;8.48;2.83;;;;;;;16.53;77.56;100730.94;5072208;28;20072;-75
2022/09/14 09:30:59;;;;;;;3.75;2.30;;;;;;;16.60;77.30;100740.50;5071853;28;20053;-75
2022/09/14 09:33:43;;;;;;;4.25;2.60;;;;;;;16.65;77.00;100731.75;5054308;28;20053;-76
2022/09/14 09:36:16;;;;;;;4.32;2.33;;;;;;;16.76;76.22;100731.81;5054820;28;20048;-76
2022/09/14 09:38:43;;;;;;;5.68;2.40;;;;;;;16.84;76.09;100722.06;5071563;28;20472;-75
2022/09/14 09:41:34;;;;;;;2.97;2.33;;;;;;;16.93;75.70;100719.16;5072072;28;20128;-75
2022/09/14 09:44:05;;;;;;;8.90;2.90;;;;;;;16.98;75.88;100718.47;5054238;28;20053;-76
2022/09/14 09:46:34;;;;;;;5.00;2.70;;;;;;;17.08;76.09;100721.66;5072725;28;20120;-75
2022/09/14 09:49:13;;;;;;;3.88;2.33;;;;;;;17.14;74.29;100729.75;5072939;28;20041;-75
2022/09/14 09:51:40;;;;;;;13.98;2.30;;;;;;;17.20;75.36;100725.09;5072809;28;20049;-76
2022/09/14 09:54:12;;;;;;;8.57;2.50;;;;;;;17.20;73.66;100723.16;5072925;28;20046;-76
2022/09/14 09:56:50;;;;;;;8.50;2.38;;;;;;;17.19;73.32;100727.09;5054423;28;20045;-76
2022/09/14 09:59:35;;;;;;;8.45;2.80;;;;;;;17.23;73.23;100722.19;5073500;28;20079;-76
2022/09/14 10:02:25;;;;;;;3.70;2.22;;;;;;;17.27;73.35;100725.38;5072708;28;20045;-76
2022/09/14 10:05:02;;;;;;;4.78;2.20;;;;;;;17.32;72.78;100727.34;5072184;28;20124;-76
2022/09/14 10:07:31;;;;;;;7.13;2.75;;;;;;;17.31;72.28;100723.19;5073220;28;20552;-76
2022/09/14 10:10:05;;;;;;;3.45;2.08;;;;;;;17.34;72.76;100724.16;5070674;28;20047;-75
2022/09/14 10:12:32;;;;;;;5.57;2.63;;;;;;;17.40;73.69;100724.91;5053594;28;20048;-76
2022/09/14 10:15:10;;;;;;;7.10;2.85;;;;;;;17.49;74.14;100722.00;5072294;28;20518;-78
2022/09/14 10:17:37;;;;;;;6.63;2.45;;;;;;;17.53;73.22;100724.47;5071425;28;20500;-77
2022/09/14 10:20:05;;;;;;;7.03;2.95;;;;;;;17.52;73.56;100717.59;5071984;28;20465;-77
2022/09/14 10:22:33;;;;;;;7.32;2.85;;;;;;;17.52;73.37;100723.72;5072056;28;20127;-75
2022/09/14 10:25:01;;;;;;;8.18;2.80;;;;;;;17.50;73.29;100715.41;5072469;28;20539;-77
2022/09/14 10:28:00;;;;;;;3.60;2.50;;;;;;;17.50;73.42;100711.97;5072675;28;20041;-76
2022/09/14 10:30:42;;;;;;;10.02;2.90;;;;;;;17.48;72.81;100715.16;5037768;28;20052;-76
2022/09/14 10:33:13;;;;;;;6.90;2.38;;;;;;;17.51;72.71;100716.13;5072229;28;20044;-76
2022/09/14 10:35:55;;;;;;;;;;;;;;;17.51;73.43;100714.19;5072751;28;20041;-75
2022/09/14 10:38:51;;;;;;;7.53;3.07;;;;;;;17.51;73.30;100716.13;5072531;28;19964;-74
2022/09/14 10:41:29;;;;;;;7.78;2.45;;;;;;;17.54;72.45;100701.72;5072304;28;20049;-76
2022/09/14 10:43:59;;;;;;;7.35;3.05;;;;;;;17.52;72.63;100704.88;5071514;28;20053;-77
2022/09/14 10:46:36;;;;;;;12.70;3.40;;;;;;;17.57;72.83;100698.78;5072148;28;20051;-76
2022/09/14 10:49:26;;;;;;;5.78;2.47;;;;;;;17.60;72.07;100699.72;5072151;28;20375;-75
2022/09/14 10:52:23;;;;;;;6.25;2.55;;;;;;;17.67;71.98;100699.28;5071882;28;20489;-77
2022/09/14 10:55:05;;;;;;;5.72;2.63;;;;;;;17.67;71.95;100700.00;5070118;28;20577;-76
2022/09/14 10:57:46;;;;;;;5.22;2.85;;;;;;;17.68;71.66;100703.44;5071938;28;20059;-75
2022/09/14 11:00:17;;;;;;;7.55;2.90;;;;;;;17.72;71.50;100705.88;5071942;28;20072;-76
2022/09/14 11:02:59;;;;;;;5.75;3.20;;;;;;;17.81;71.51;100703.69;5071857;28;20136;-76
2022/09/14 11:05:30;;;;;;;;;;;;;;;17.91;71.92;100706.88;5072341;28;20049;-75
2022/09/14 11:08:26;;;;;;;3.53;2.50;;;;;;;17.90;70.13;100708.84;5070365;28;19960;-77
2022/09/14 11:11:14;;;;;;;9.55;2.85;;;;;;;18.00;70.55;100712.72;5067326;28;20053;-75
2022/09/14 11:13:49;;;;;;;6.40;2.83;;;;;;;18.05;70.21;100703.16;5052793;28;20528;-75
2022/09/14 11:16:27;;;;;;;6.13;3.10;;;;;;;18.14;69.72;100708.31;5071623;28;20047;-76
2022/09/14 11:19:34;;;;;;;6.78;2.78;;;;;;;18.24;69.45;100708.78;5070945;28;20080;-76
2022/09/14 11:22:19;;;;;;;3.95;2.92;;;;;;;18.32;68.47;100715.88;5050762;28;20145;-76
2022/09/14 11:25:09;;;;;;;4.18;2.35;;;;;;;18.38;68.54;100715.13;5052511;28;20051;-76
2022/09/14 11:27:45;;;;;;;11.38;2.88;;;;;;;18.44;68.48;100721.97;5044476;28;20593;-75
2022/09/14 11:30:18;;;;;;;5.28;2.72;;;;;;;18.50;68.23;100716.56;5070958;28;20057;-78
2022/09/14 11:32:52;;;;;;;13.35;2.83;;;;;;;18.52;68.28;100716.78;5071840;28;20067;-78
2022/09/14 11:35:33;;;;;;;3.92;2.72;;;;;;;18.47;67.50;100712.16;5053708;28;20049;-78
2022/09/14 11:38:06;;;;;;;12.27;3.15;;;;;;;18.43;67.84;100717.78;5071501;28;20068;-77
2022/09/14 11:40:43;;;;;;;5.50;2.50;;;;;;;18.49;68.08;100715.09;5071261;28;20489;-77
2022/09/14 11:43:16;;;;;;;3.00;2.40;;;;;;;18.52;66.25;100708.72;5070944;28;20140;-77
2022/09/14 11:45:51;;;;;;;7.78;2.70;;;;;;;18.63;66.09;100714.09;5053497;28;20072;-77
2022/09/14 11:48:24;;;;;;;8.27;2.40;;;;;;;18.72;65.62;100707.69;5071708;28;20053;-77